OH43 weather

Anderson Airport
Canal Winchester, Ohio, United States

Public forecast

Using degrees Fahrenheit for public forecast. Weather courtesy of forecast.io.

METAR (pilot weather report)

Closest report is Fairfield County Airport, 5.8 nm (10.8 km) SE. Retrieved 2019/05/21 10:53 UTC (9 minutes ago):

KLHQ 211053Z AUTO 02005KT 10SM CLR 09/07 A3014 RMK AO2 SLP204 T00940072

TAF (pilot weather forecast)

Closest forecast is Rickenbacker International Airport, 9.1 nm (16.8 km) W. Retrieved 2019/05/21 06:58 UTC (4 hours ago):

TAF KLCK 210536Z 2106/2206 02006KT P6SM FEW030 BKN250 FM211400 07007KT P6SM BKN120 FM212300 06009KT P6SM SCT100